createdAt,value
2018-12-24T15:54:47.356Z,7.93
2018-12-24T15:57:22.290Z,7.86
2018-12-24T15:59:56.697Z,7.86
2018-12-24T16:02:28.327Z,7.85
2018-12-24T16:05:00.041Z,7.84
2018-12-24T16:07:31.839Z,7.81
2018-12-24T16:10:07.397Z,7.79
2018-12-24T16:12:39.018Z,7.80
2018-12-24T16:15:10.707Z,7.83
2018-12-24T16:17:42.452Z,7.83
2018-12-24T16:20:14.042Z,7.79
2018-12-24T16:22:45.644Z,7.76
2018-12-24T16:25:17.326Z,7.69
2018-12-24T16:27:49.033Z,7.69
2018-12-24T16:30:20.656Z,7.67
2018-12-24T16:32:52.596Z,7.63
2018-12-24T16:35:24.218Z,7.66
2018-12-24T16:37:57.713Z,7.66
2018-12-24T16:40:29.344Z,7.64
2018-12-24T16:43:01.025Z,7.62
2018-12-24T16:45:32.718Z,7.45
2018-12-24T16:48:04.595Z,7.30
2018-12-24T16:50:36.176Z,7.26
2018-12-24T16:53:07.817Z,7.14
2018-12-24T16:55:39.376Z,7.01
2018-12-24T16:58:11.248Z,6.94
2018-12-24T17:00:42.832Z,6.87
2018-12-24T17:03:14.405Z,6.88
2018-12-24T17:05:46.302Z,6.93
2018-12-24T17:08:23.934Z,6.93
2018-12-24T17:11:00.144Z,6.90
2018-12-24T17:13:31.737Z,6.97
2018-12-24T17:16:04.663Z,6.97
2018-12-24T17:18:36.277Z,6.93
2018-12-24T17:21:12.541Z,6.87
2018-12-24T17:23:45.757Z,6.84
2018-12-24T17:26:18.573Z,6.80
2018-12-24T17:28:50.157Z,6.83
2018-12-24T17:31:21.799Z,6.83
2018-12-24T17:33:56.666Z,6.87
2018-12-24T17:36:28.543Z,6.90
2018-12-24T17:39:03.309Z,6.85
2018-12-24T17:41:36.945Z,6.87
2018-12-24T17:44:10.548Z,6.85
2018-12-24T17:46:41.845Z,6.87
2018-12-24T17:49:13.441Z,6.84
2018-12-24T17:51:48.093Z,6.82
2018-12-24T17:54:21.354Z,6.81
2018-12-24T17:56:54.605Z,6.78
2018-12-24T17:59:26.164Z,6.82
2018-12-24T18:01:58.220Z,6.81
2018-12-24T18:04:30.973Z,6.77
2018-12-24T18:07:04.698Z,6.78
2018-12-24T18:09:36.436Z,6.67
2018-12-24T18:12:08.324Z,6.57
2018-12-24T18:14:40.021Z,6.42
2018-12-24T18:17:24.512Z,6.34
2018-12-24T18:19:49.973Z,6.32
2018-12-24T18:22:23.609Z,6.32
2018-12-24T18:24:57.006Z,6.34
2018-12-24T18:27:35.890Z,6.32
2018-12-24T18:30:10.861Z,6.35
2018-12-24T18:32:42.733Z,6.42
2018-12-24T18:35:14.408Z,6.36
2018-12-24T18:37:48.087Z,6.32
2018-12-24T18:40:26.019Z,6.31
2018-12-24T18:43:03.253Z,6.19
2018-12-24T18:45:36.896Z,6.15
2018-12-24T18:48:08.737Z,6.09
2018-12-24T18:50:42.409Z,6.09
2018-12-24T18:53:16.344Z,6.10
2018-12-24T18:55:54.100Z,6.13
2018-12-24T18:58:26.013Z,6.13
2018-12-24T19:00:59.558Z,6.11
2018-12-24T19:03:32.628Z,6.12
2018-12-24T19:06:07.360Z,6.10
2018-12-24T19:08:39.239Z,6.10
2018-12-24T19:11:12.521Z,6.06
2018-12-24T19:13:45.197Z,6.06
2018-12-24T19:16:17.063Z,6.02
2018-12-24T19:18:48.649Z,5.93
2018-12-24T19:21:20.530Z,5.85
2018-12-24T19:23:53.877Z,5.82
2018-12-24T19:26:25.783Z,5.79
2018-12-24T19:28:59.214Z,5.82
2018-12-24T19:31:33.696Z,5.78
2018-12-24T19:34:11.256Z,5.66
2018-12-24T19:36:45.636Z,5.55
2018-12-24T19:39:19.819Z,5.41
2018-12-24T19:41:51.706Z,5.40
2018-12-24T19:44:23.448Z,5.47
2018-12-24T19:46:55.330Z,5.46
2018-12-24T19:49:27.205Z,5.43
2018-12-24T19:51:59.092Z,5.48
2018-12-24T19:54:32.155Z,5.43
2018-12-24T19:57:07.072Z,5.39
2018-12-24T19:59:41.872Z,5.37
2018-12-24T20:02:16.435Z,5.30
2018-12-24T20:04:51.337Z,5.23
2018-12-24T20:07:25.653Z,5.14
2018-12-24T20:09:59.357Z,5.15
2018-12-24T20:12:32.894Z,5.12
2018-12-24T20:15:06.067Z,5.06
2018-12-24T20:17:37.979Z,5.01
2018-12-24T20:20:09.940Z,4.97
2018-12-24T20:22:41.834Z,4.92
2018-12-24T20:25:13.759Z,4.92
2018-12-24T20:27:51.605Z,4.89
2018-12-24T20:30:25.443Z,4.86
2018-12-24T20:32:59.272Z,4.88
2018-12-24T20:35:31.204Z,4.88
2018-12-24T20:38:04.411Z,4.88
2018-12-24T20:40:39.162Z,4.88
2018-12-24T20:43:11.075Z,4.83
2018-12-24T20:45:45.698Z,4.78
2018-12-24T20:48:17.719Z,4.81
2018-12-24T20:50:49.588Z,4.79
2018-12-24T20:53:21.501Z,4.77
2018-12-24T20:55:53.381Z,4.77
2018-12-24T20:58:25.320Z,4.81
2018-12-24T21:01:00.250Z,4.85
2018-12-24T21:03:36.613Z,4.86
2018-12-24T21:06:09.980Z,4.78
2018-12-24T21:08:41.881Z,4.72
2018-12-24T21:11:13.785Z,4.76
2018-12-24T21:13:45.760Z,4.77
2018-12-24T21:16:17.692Z,4.75
2018-12-24T21:18:49.577Z,4.64
2018-12-24T21:21:21.475Z,4.51
2018-12-24T21:23:53.624Z,4.40
2018-12-24T21:26:25.531Z,4.32
2018-12-24T21:28:57.422Z,4.32
2018-12-24T21:31:29.487Z,4.27
2018-12-24T21:34:01.359Z,4.16
2018-12-24T21:36:33.290Z,4.12
2018-12-24T21:39:07.745Z,4.07
2018-12-24T21:41:39.679Z,4.00
2018-12-24T21:44:11.556Z,3.97
2018-12-24T21:46:43.514Z,3.93
2018-12-24T21:49:15.664Z,3.89
2018-12-24T21:51:49.390Z,3.90
2018-12-24T21:54:21.301Z,3.92
2018-12-24T21:56:53.205Z,3.84
2018-12-24T21:59:25.060Z,3.82
2018-12-24T22:01:56.965Z,3.72
2018-12-24T22:04:28.954Z,3.66
2018-12-24T22:07:00.892Z,3.65
2018-12-24T22:09:32.788Z,3.55
2018-12-24T22:12:04.914Z,3.58
2018-12-24T22:14:36.789Z,3.50
2018-12-24T22:17:08.698Z,3.49
2018-12-24T22:19:40.554Z,3.51
2018-12-24T22:22:12.460Z,3.56
2018-12-24T22:24:44.374Z,3.58
2018-12-24T22:27:16.335Z,3.52
2018-12-24T22:29:48.334Z,3.37
2018-12-24T22:32:20.365Z,3.20
2018-12-24T22:34:52.255Z,3.18
2018-12-24T22:37:27.124Z,3.25
2018-12-24T22:39:59.052Z,3.23
2018-12-24T22:42:30.955Z,3.23
2018-12-24T22:45:02.867Z,3.16
2018-12-24T22:47:34.793Z,3.11
2018-12-24T22:50:09.511Z,3.18
2018-12-24T22:52:41.399Z,3.17
2018-12-24T22:55:14.770Z,3.16
2018-12-24T22:57:46.679Z,3.22
2018-12-24T23:00:32.222Z,3.16
2018-12-24T23:03:04.507Z,3.15
2018-12-24T23:05:36.401Z,3.13
2018-12-24T23:08:08.302Z,3.11
2018-12-24T23:10:40.290Z,3.13
2018-12-24T23:13:12.174Z,3.07
2018-12-24T23:15:44.058Z,3.11
2018-12-24T23:18:15.949Z,3.05
2018-12-24T23:20:47.926Z,2.99
2018-12-24T23:23:19.917Z,3.02
2018-12-24T23:25:52.058Z,2.98
2018-12-24T23:28:30.357Z,2.94
2018-12-24T23:31:02.248Z,2.98
2018-12-24T23:33:34.142Z,2.94
2018-12-24T23:36:06.029Z,2.91
2018-12-24T23:38:37.945Z,2.92
2018-12-24T23:41:09.870Z,2.88
2018-12-24T23:43:41.763Z,2.87
2018-12-24T23:46:13.688Z,2.80
2018-12-24T23:48:45.529Z,2.76
2018-12-24T23:51:18.985Z,2.69
2018-12-24T23:53:52.549Z,2.68
2018-12-24T23:56:24.466Z,2.70
2018-12-24T23:58:56.375Z,2.67
